createdAt,value
2018-09-17T00:01:44.171Z,4.57
2018-09-17T00:04:11.728Z,4.72
2018-09-17T00:06:39.283Z,4.78
2018-09-17T00:09:08.340Z,4.80
2018-09-17T00:11:36.244Z,5.40
2018-09-17T00:14:03.818Z,5.00
2018-09-17T00:16:31.604Z,5.30
2018-09-17T00:18:59.200Z,4.93
2018-09-17T00:21:26.727Z,3.93
2018-09-17T00:23:54.386Z,4.30
2018-09-17T00:26:21.953Z,4.37
2018-09-17T00:28:49.488Z,4.75
2018-09-17T00:31:17.055Z,4.90
2018-09-17T00:33:44.603Z,4.90
2018-09-17T00:36:12.147Z,4.63
2018-09-17T00:38:39.698Z,4.73
2018-09-17T00:41:07.589Z,4.80
2018-09-17T00:43:35.460Z,4.93
2018-09-17T00:46:03.088Z,4.47
2018-09-17T00:48:30.696Z,4.00
2018-09-17T00:50:58.236Z,3.87
2018-09-17T00:53:25.850Z,4.77
2018-09-17T00:55:53.416Z,4.57
2018-09-17T00:58:20.923Z,4.43
2018-09-17T01:00:48.532Z,4.20
2018-09-17T01:03:16.098Z,4.43
2018-09-17T01:05:43.633Z,4.17
2018-09-17T01:08:11.305Z,4.43
2018-09-17T01:10:38.878Z,4.13
2018-09-17T01:13:06.721Z,3.97
2018-09-17T01:15:34.299Z,5.07
2018-09-17T01:18:02.127Z,4.70
2018-09-17T01:20:29.751Z,5.27
2018-09-17T01:22:57.564Z,4.72
2018-09-17T01:25:25.125Z,4.07
2018-09-17T01:27:52.651Z,3.83
2018-09-17T01:30:20.264Z,5.60
2018-09-17T01:32:47.848Z,4.07
2018-09-17T01:35:15.411Z,4.53
2018-09-17T01:37:43.026Z,4.17
2018-09-17T01:40:10.608Z,3.90
2018-09-17T01:42:38.150Z,4.40
2018-09-17T01:45:05.749Z,4.23
2018-09-17T01:47:33.281Z,4.33
2018-09-17T01:50:00.805Z,4.57
2018-09-17T01:52:28.340Z,4.23
2018-09-17T01:54:55.891Z,3.93
2018-09-17T01:57:23.505Z,5.00
2018-09-17T01:59:51.024Z,4.70
2018-09-17T02:02:18.584Z,4.43
2018-09-17T02:04:46.125Z,4.70
2018-09-17T02:07:13.924Z,4.43
2018-09-17T02:09:41.778Z,4.83
2018-09-17T02:12:11.102Z,5.63
2018-09-17T02:14:39.057Z,5.30
2018-09-17T02:17:06.947Z,4.87
2018-09-17T02:19:34.467Z,4.50
2018-09-17T02:22:02.319Z,5.00
2018-09-17T02:24:29.876Z,4.33
2018-09-17T02:26:57.552Z,6.20
2018-09-17T02:29:25.404Z,5.60
2018-09-17T02:31:53.037Z,5.00
2018-09-17T02:34:20.568Z,5.07
2018-09-17T02:36:48.184Z,4.93
2018-09-17T02:39:15.807Z,5.57
2018-09-17T02:41:43.377Z,6.10
2018-09-17T02:44:10.978Z,5.40
2018-09-17T02:46:38.532Z,4.90
2018-09-17T02:49:06.112Z,4.20
2018-09-17T02:51:33.632Z,5.07
2018-09-17T02:54:01.188Z,4.47
2018-09-17T02:56:28.744Z,5.10
2018-09-17T02:58:56.520Z,5.63
2018-09-17T03:01:24.071Z,5.90
2018-09-17T03:03:51.584Z,5.20
2018-09-17T03:06:19.114Z,5.10
2018-09-17T03:08:46.895Z,7.50
2018-09-17T03:11:14.463Z,6.77
2018-09-17T03:13:42.001Z,6.78
2018-09-17T03:16:09.557Z,5.67
2018-09-17T03:18:48.079Z,5.70
2018-09-17T03:21:15.634Z,6.13
2018-09-17T03:23:43.179Z,6.03
2018-09-17T03:26:10.728Z,5.47
2018-09-17T03:28:38.276Z,4.80
2018-09-17T03:31:05.833Z,5.90
2018-09-17T03:33:33.355Z,4.97
2018-09-17T03:36:00.931Z,5.50
2018-09-17T03:38:37.865Z,6.10
2018-09-17T03:41:06.311Z,5.90
2018-09-17T03:43:34.555Z,5.80
2018-09-17T03:46:02.189Z,5.57
2018-09-17T03:48:30.711Z,5.20
2018-09-17T03:50:58.568Z,4.63
2018-09-17T03:53:26.132Z,4.83
2018-09-17T03:55:53.746Z,5.83
2018-09-17T03:58:21.315Z,5.40
2018-09-17T04:00:49.215Z,6.13
2018-09-17T04:03:16.790Z,5.30
2018-09-17T04:05:44.655Z,4.90
2018-09-17T04:08:12.183Z,6.13
2018-09-17T04:10:39.994Z,4.73
2018-09-17T04:13:07.946Z,5.57
2018-09-17T04:15:35.484Z,6.40
2018-09-17T04:18:03.077Z,4.93
2018-09-17T04:20:30.663Z,4.53
2018-09-17T04:22:58.232Z,4.97
2018-09-17T04:25:26.372Z,5.97
2018-09-17T04:27:53.935Z,6.27
2018-09-17T04:30:21.559Z,5.80
2018-09-17T04:32:49.799Z,5.00
2018-09-17T04:35:17.397Z,5.13
2018-09-17T18:25:13.899Z,3.35
2018-09-17T18:27:41.642Z,3.10
2018-09-17T18:30:09.450Z,2.80
2018-09-17T18:32:37.326Z,2.90
2018-09-17T18:35:05.055Z,2.77
2018-09-17T18:37:32.796Z,2.60
2018-09-17T18:40:00.705Z,2.47
2018-09-17T18:42:28.473Z,2.70
2018-09-17T18:44:56.184Z,3.00
2018-09-17T18:47:24.767Z,2.90
2018-09-17T18:49:52.441Z,2.33
2018-09-17T18:52:20.288Z,2.80
2018-09-17T18:54:47.984Z,3.00
2018-09-17T18:57:22.446Z,2.42
2018-09-17T18:59:50.358Z,2.90
2018-09-17T19:02:18.074Z,3.05
2018-09-17T19:04:45.994Z,3.08
2018-09-17T19:07:13.693Z,2.98
2018-09-17T19:09:46.561Z,2.75
2018-09-17T19:12:14.989Z,3.30
2018-09-17T19:14:48.654Z,3.87
2018-09-17T19:17:22.222Z,4.05
2018-09-17T19:19:50.775Z,3.55
2018-09-17T19:22:24.668Z,3.80
2018-09-17T19:24:53.796Z,3.37
2018-09-17T19:27:26.850Z,3.98
2018-09-17T19:29:55.708Z,3.30
2018-09-17T19:32:23.878Z,3.35
2018-09-17T19:34:56.617Z,3.35
2018-09-17T19:37:30.755Z,3.33
2018-09-17T19:40:04.547Z,3.08
2018-09-17T19:42:33.075Z,3.20
2018-09-17T19:45:06.649Z,3.87
2018-09-17T19:47:34.750Z,3.35
2018-09-17T19:50:07.648Z,3.20
2018-09-17T19:52:35.996Z,3.12
2018-09-17T19:55:04.107Z,3.67
2018-09-17T19:57:37.538Z,3.62
2018-09-17T20:00:05.746Z,3.65
2018-09-17T20:02:33.371Z,3.50
2018-09-17T20:05:06.544Z,3.70
2018-09-17T20:07:34.171Z,3.42
2018-09-17T20:10:01.960Z,3.33
2018-09-17T20:12:29.560Z,3.55
2018-09-17T20:14:57.179Z,3.50
2018-09-17T20:17:25.055Z,3.58
2018-09-17T20:19:52.868Z,4.97
2018-09-17T20:22:38.620Z,4.60
2018-09-17T20:25:06.272Z,4.15
2018-09-17T20:27:33.923Z,3.92
2018-09-17T20:30:01.563Z,3.55
2018-09-17T20:32:29.262Z,3.63
2018-09-17T20:34:56.880Z,3.77
2018-09-17T20:37:24.595Z,4.22
2018-09-17T20:39:52.292Z,4.37
2018-09-17T20:42:20.077Z,4.62
2018-09-17T20:44:47.776Z,4.30
2018-09-17T20:47:15.401Z,3.80
2018-09-17T20:49:43.258Z,3.70
2018-09-17T20:52:11.027Z,4.83
2018-09-17T20:54:38.694Z,4.37
2018-09-17T20:57:06.358Z,4.12
2018-09-17T20:59:34.033Z,4.00
2018-09-17T21:02:01.745Z,4.65
2018-09-17T21:04:29.466Z,4.12
2018-09-17T21:06:57.178Z,4.12
2018-09-17T21:09:24.920Z,4.20
2018-09-17T21:11:52.553Z,4.05
2018-09-17T21:14:20.180Z,3.52
2018-09-17T21:16:47.960Z,3.67
2018-09-17T21:19:15.687Z,4.55
2018-09-17T21:21:43.304Z,4.20
2018-09-17T21:24:11.162Z,3.70
2018-09-17T21:26:38.806Z,4.00
2018-09-17T21:29:06.550Z,3.95
2018-09-17T21:31:34.308Z,3.83
2018-09-17T21:34:01.960Z,3.35
2018-09-17T21:36:29.634Z,4.08
2018-09-17T21:41:33.563Z,3.77
2018-09-17T21:44:01.213Z,3.83
2018-09-17T21:46:28.877Z,4.08
2018-09-17T21:48:56.506Z,4.07
2018-09-17T21:51:24.193Z,3.70
2018-09-17T21:53:51.927Z,3.70
2018-09-17T21:56:19.586Z,3.80
2018-09-17T21:58:47.386Z,3.70
2018-09-17T22:01:21.834Z,3.72
2018-09-17T22:03:50.026Z,3.85
2018-09-17T22:06:17.612Z,3.65
2018-09-17T22:08:45.260Z,3.20
2018-09-17T22:11:12.848Z,3.50
2018-09-17T22:13:40.436Z,3.47
2018-09-17T22:16:08.096Z,4.28
2018-09-17T22:18:35.707Z,4.28
2018-09-17T22:21:03.311Z,4.15
2018-09-17T22:23:30.937Z,4.25
2018-09-17T22:25:58.559Z,3.90
2018-09-17T22:28:26.213Z,4.30
2018-09-17T22:30:53.922Z,3.70
2018-09-17T22:33:21.652Z,4.15
2018-09-17T22:35:49.300Z,3.62
2018-09-17T22:38:17.098Z,3.80
2018-09-17T22:40:44.712Z,4.45
2018-09-17T22:43:12.351Z,3.80
2018-09-17T22:45:39.932Z,4.15
2018-09-17T22:48:07.532Z,3.80
2018-09-17T22:50:35.112Z,3.37
2018-09-17T22:53:02.693Z,3.87
2018-09-17T22:55:30.290Z,4.00
2018-09-17T22:57:57.887Z,3.50
2018-09-17T23:00:25.465Z,3.70
2018-09-17T23:02:53.076Z,3.60
2018-09-17T23:05:20.901Z,3.50
2018-09-17T23:07:48.488Z,3.40
2018-09-17T23:10:16.331Z,3.90
2018-09-17T23:12:43.996Z,3.62
2018-09-17T23:15:11.780Z,3.47
2018-09-17T23:20:03.613Z,4.20
2018-09-17T23:22:31.184Z,4.03
2018-09-17T23:24:58.780Z,4.10
2018-09-17T23:27:26.400Z,3.77
2018-09-17T23:29:53.995Z,4.20
2018-09-17T23:32:21.595Z,4.47
2018-09-17T23:34:49.508Z,4.00
2018-09-17T23:37:17.333Z,3.67
2018-09-17T23:39:44.920Z,3.85
2018-09-17T23:42:12.565Z,4.17
2018-09-17T23:44:40.200Z,4.47
2018-09-17T23:47:08.089Z,4.20
2018-09-17T23:49:35.916Z,4.10
2018-09-17T23:52:03.556Z,3.50
2018-09-17T23:54:31.156Z,3.70
2018-09-17T23:56:58.736Z,3.43
2018-09-17T23:59:26.468Z,3.50
